Time;durP1;ratioP1;P1;durP2;ratioP2;P2;SDS_P1;SDS_P2;PMS_P1;PMS_P2;Temp;Humidity;BMP_temperature;BMP_pressure;BME280_temperature;BME280_humidity;BME280_pressure;Samples;Min_cycle;Max_cycle;Signal;HPM_P1;HPM_P2
2024/01/18 00:00:40;;;;;;;18.17;9.13;;;;;;;4.47;100.00;63393.41;5051686;28;20604;-53
2024/01/18 00:03:05;;;;;;;17.10;9.30;;;;;;;4.13;100.00;63357.53;5051391;28;20274;-54
2024/01/18 00:05:31;;;;;;;13.20;8.93;;;;;;;4.47;100.00;63390.94;5051488;28;20277;-53
2024/01/18 00:07:56;;;;;;;15.37;9.13;;;;;;;4.29;100.00;63371.91;5051666;28;20205;-54
2024/01/18 00:10:26;;;;;;;15.47;9.37;;;;;;;4.55;100.00;63400.19;5033938;28;20295;-54
2024/01/18 00:12:55;;;;;;;14.50;9.30;;;;;;;4.61;100.00;63409.19;5033288;28;20231;-55
2024/01/18 00:15:21;;;;;;;14.73;9.83;;;;;;;4.51;100.00;63398.31;5051533;28;20265;-56
2024/01/18 00:17:47;;;;;;;16.30;10.07;;;;;;;4.47;100.00;63393.97;5033293;28;20213;-54
2024/01/18 00:20:13;;;;;;;16.97;10.73;;;;;;;4.20;100.00;63365.16;5051278;28;20658;-54
2024/01/18 00:22:38;;;;;;;16.43;9.23;;;;;;;4.51;100.00;63395.81;5051138;28;20216;-54
2024/01/18 00:25:04;;;;;;;18.63;9.67;;;;;;;4.77;100.00;63424.09;5033218;28;20207;-54
2024/01/18 00:27:30;;;;;;;18.67;10.63;;;;;;;4.88;100.00;63433.59;5049637;28;20213;-54
2024/01/18 00:29:56;;;;;;;18.57;10.80;;;;;;;4.96;100.00;63447.28;5031554;28;20190;-55
2024/01/18 00:32:23;;;;;;;17.33;11.13;;;;;;;4.50;100.00;63397.25;5050963;28;20300;-54
2024/01/18 00:34:49;;;;;;;15.73;9.80;;;;;;;4.61;100.00;63411.16;5033246;28;20220;-60
2024/01/18 00:37:14;;;;;;;19.20;10.67;;;;;;;4.43;100.00;63391.56;5033060;28;20220;-54
2024/01/18 00:39:41;;;;;;;14.00;9.63;;;;;;;4.56;100.00;63401.28;5051607;28;20197;-55
2024/01/18 00:42:07;;;;;;;18.57;12.13;;;;;;;4.26;100.00;63371.66;5051054;28;20210;-54
2024/01/18 00:44:34;;;;;;;16.27;10.30;;;;;;;4.54;100.00;63398.56;5051015;28;20189;-54
2024/01/18 00:46:59;;;;;;;22.23;12.50;;;;;;;4.51;100.00;63397.78;5050857;28;20705;-54
2024/01/18 00:49:32;;;;;;;18.97;11.77;;;;;;;4.04;100.00;63347.22;5050735;28;20198;-53
2024/01/18 00:51:58;;;;;;;18.53;11.33;;;;;;;4.20;100.00;63362.13;5050635;28;20695;-55
2024/01/18 00:54:24;;;;;;;16.37;11.07;;;;;;;4.20;100.00;63362.13;5050527;28;20269;-54
2024/01/18 00:56:49;;;;;;;17.27;10.93;;;;;;;4.04;100.00;63347.22;5050582;28;20217;-54
2024/01/18 00:59:15;;;;;;;18.57;11.60;;;;;;;4.28;100.00;63371.34;5050842;28;20203;-54
2024/01/18 01:01:40;;;;;;;21.13;11.63;;;;;;;4.05;100.00;63343.31;5032938;28;20196;-55
2024/01/18 01:04:06;;;;;;;18.53;11.20;;;;;;;4.09;100.00;63352.66;5050778;28;20202;-55
2024/01/18 01:06:32;;;;;;;18.20;11.13;;;;;;;4.02;100.00;63345.06;5050503;28;20203;-54
2024/01/18 01:08:57;;;;;;;17.87;10.70;;;;;;;4.10;100.00;63349.28;5050652;28;20276;-54
2024/01/18 01:11:23;;;;;;;13.97;10.33;;;;;;;3.94;100.00;63334.38;5050484;28;20231;-55
2024/01/18 01:13:48;;;;;;;14.87;9.87;;;;;;;4.14;100.00;63358.09;5032673;28;20227;-54
2024/01/18 01:16:14;;;;;;;17.03;10.50;;;;;;;4.21;100.00;63363.19;5050749;28;20590;-57
2024/01/18 01:18:39;;;;;;;17.40;11.07;;;;;;;4.10;100.00;63351.78;5050485;28;20706;-53
2024/01/18 01:21:05;;;;;;;16.03;10.30;;;;;;;4.38;100.00;63384.19;5050466;28;20224;-54
2024/01/18 01:23:31;;;;;;;16.67;10.57;;;;;;;4.19;100.00;63364.06;5050290;28;20595;-55
2024/01/18 01:25:56;;;;;;;17.20;11.13;;;;;;;4.10;100.00;63353.75;5050304;28;20182;-55
2024/01/18 01:28:22;;;;;;;16.27;10.37;;;;;;;4.09;100.00;63350.16;5050257;28;20212;-55
2024/01/18 01:30:48;;;;;;;19.17;10.00;;;;;;;4.25;100.00;63368.09;5050458;28;20196;-54
2024/01/18 01:33:14;;;;;;;15.90;9.40;;;;;;;4.43;100.00;63389.06;5050321;28;20602;-56
2024/01/18 01:35:40;;;;;;;14.40;9.37;;;;;;;4.36;100.00;63382.03;5050337;28;20277;-54
2024/01/18 01:38:06;;;;;;;15.80;10.07;;;;;;;4.35;100.00;63378.44;5032421;28;20255;-56
2024/01/18 01:40:31;;;;;;;14.80;9.43;;;;;;;4.22;100.00;63364.81;5050685;28;20279;-53
2024/01/18 01:42:57;;;;;;;14.33;9.57;;;;;;;4.33;100.00;63376.25;5050492;28;20223;-55
2024/01/18 01:45:22;;;;;;;15.43;8.73;;;;;;;4.45;100.00;63393.75;5050521;28;20190;-54
2024/01/18 01:47:48;;;;;;;15.73;9.40;;;;;;;4.39;100.00;63382.78;5050062;28;20207;-55
2024/01/18 01:50:13;;;;;;;15.50;9.17;;;;;;;4.35;100.00;63380.91;5050239;28;20220;-55
2024/01/18 01:52:41;;;;;;;14.73;8.10;;;;;;;4.11;100.00;63354.81;5050185;28;20213;-54
2024/01/18 01:55:07;;;;;;;16.27;9.07;;;;;;;4.43;100.00;63387.13;5049993;28;20217;-54
2024/01/18 01:57:36;;;;;;;15.23;8.67;;;;;;;4.10;100.00;63351.25;5049958;28;20240;-55
2024/01/18 02:00:03;;;;;;;15.33;8.83;;;;;;;4.31;100.00;63379.06;5050794;28;20225;-56
2024/01/18 02:02:29;;;;;;;14.00;8.20;;;;;;;4.33;100.00;63378.75;5049871;28;20263;-54
2024/01/18 02:04:55;;;;;;;17.87;9.67;;;;;;;4.28;100.00;63373.31;5050199;28;20655;-54
2024/01/18 02:07:22;;;;;;;12.93;9.47;;;;;;;4.39;100.00;63385.28;5051156;28;20712;-55
2024/01/18 02:09:48;;;;;;;13.53;9.00;;;;;;;4.63;100.00;63411.38;5053687;28;20221;-54
2024/01/18 02:12:15;;;;;;;15.53;8.83;;;;;;;4.66;100.00;63412.16;5053328;28;20217;-53
2024/01/18 02:14:41;;;;;;;15.60;8.87;;;;;;;4.54;100.00;63401.03;5053193;28;20297;-54
2024/01/18 02:17:06;;;;;;;15.03;8.77;;;;;;;4.50;100.00;63397.25;5053212;28;20647;-55
2024/01/18 02:19:32;;;;;;;14.07;8.67;;;;;;;4.54;100.00;63401.03;5053223;28;20189;-53
2024/01/18 02:22:01;;;;;;;15.47;8.70;;;;;;;4.82;100.00;63429.56;5052958;28;20604;-54
2024/01/18 02:24:33;;;;;;;14.73;9.13;;;;;;;4.85;100.00;63437.81;5053271;28;20242;-54
2024/01/18 02:26:59;;;;;;;13.10;9.13;;;;;;;4.76;100.00;63423.03;5053032;28;20270;-54
2024/01/18 02:29:24;;;;;;;17.13;10.27;;;;;;;4.65;100.00;63408.56;5053196;28;20598;-54
2024/01/18 02:31:50;;;;;;;13.83;9.20;;;;;;;4.64;100.00;63409.97;5052976;28;20216;-53
2024/01/18 02:34:18;;;;;;;17.77;10.23;;;;;;;4.29;100.00;63374.41;5053021;28;20285;-55
2024/01/18 02:36:44;;;;;;;14.57;9.07;;;;;;;4.32;100.00;63375.19;5052750;28;20204;-54
2024/01/18 02:39:12;;;;;;;13.67;9.70;;;;;;;4.23;100.00;63368.41;5052820;28;20335;-53
2024/01/18 02:41:38;;;;;;;14.80;9.40;;;;;;;4.38;100.00;63383.66;5052698;28;20264;-55
2024/01/18 02:44:04;;;;;;;15.97;9.27;;;;;;;4.40;100.00;63386.38;5052853;28;20276;-56
2024/01/18 02:46:34;;;;;;;12.60;8.67;;;;;;;4.36;100.00;63381.47;5034802;28;20182;-54
2024/01/18 02:49:00;;;;;;;15.20;8.73;;;;;;;4.32;100.00;63377.66;5052769;28;20189;-59
2024/01/18 02:51:26;;;;;;;14.20;8.90;;;;;;;4.22;100.00;63362.34;5034763;28;20179;-60
2024/01/18 02:53:52;;;;;;;15.40;8.50;;;;;;;4.11;100.00;63354.81;5052565;28;20220;-55
2024/01/18 02:56:19;;;;;;;16.10;8.87;;;;;;;4.34;100.00;63379.28;5034697;28;20196;-55
2024/01/18 02:58:44;;;;;;;12.33;8.93;;;;;;;4.56;100.00;63406.25;5052477;28;20683;-56
2024/01/18 03:01:10;;;;;;;14.17;9.87;;;;;;;4.36;100.00;63379.53;5052608;28;20269;-55
2024/01/18 03:03:36;;;;;;;12.97;8.30;;;;;;;4.62;100.00;63410.28;5034415;28;20728;-57
2024/01/18 03:06:02;;;;;;;16.40;9.60;;;;;;;4.41;100.00;63387.44;5052698;28;20269;-55
2024/01/18 03:08:27;;;;;;;14.40;9.03;;;;;;;4.40;100.00;63385.81;5052317;28;20303;-54
2024/01/18 03:10:53;;;;;;;14.80;8.87;;;;;;;4.23;100.00;63368.41;5034845;28;20196;-55
2024/01/18 03:13:18;;;;;;;13.87;8.70;;;;;;;4.39;100.00;63385.28;5034499;28;20213;-55
2024/01/18 03:15:44;;;;;;;14.17;9.07;;;;;;;4.55;100.00;63402.66;5052766;28;20196;-56
2024/01/18 03:18:09;;;;;;;15.03;9.43;;;;;;;4.62;100.00;63407.81;5052214;28;20243;-55
2024/01/18 03:20:42;;;;;;;13.93;9.17;;;;;;;4.83;100.00;63432.59;5052384;28;20196;-55
2024/01/18 03:23:07;;;;;;;12.57;8.63;;;;;;;4.72;100.00;63418.69;5052092;28;20709;-54
2024/01/18 03:25:33;;;;;;;18.50;9.00;;;;;;;4.39;100.00;63387.75;5052263;28;20270;-54
2024/01/18 03:27:59;;;;;;;14.17;8.83;;;;;;;4.67;100.00;63413.22;5051988;28;20248;-54
2024/01/18 03:30:25;;;;;;;13.37;9.20;;;;;;;4.73;100.00;63419.75;5052455;28;20212;-55
2024/01/18 03:32:50;;;;;;;15.03;9.33;;;;;;;4.43;100.00;63389.63;5052044;28;20702;-54
2024/01/18 03:35:16;;;;;;;14.40;9.20;;;;;;;4.65;100.00;63410.50;5052188;28;20225;-53
2024/01/18 03:37:42;;;;;;;14.40;9.03;;;;;;;4.32;100.00;63375.19;5051888;28;20221;-55
2024/01/18 03:40:10;;;;;;;12.03;8.00;;;;;;;4.55;100.00;63399.63;5052078;28;20251;-54
2024/01/18 03:42:41;;;;;;;14.03;10.27;;;;;;;4.30;100.00;63375.50;5051841;28;20229;-54
2024/01/18 03:45:07;;;;;;;13.83;8.87;;;;;;;4.25;100.00;63370.59;5051646;28;20670;-55
2024/01/18 03:47:32;;;;;;;14.47;9.40;;;;;;;4.48;100.00;63392.56;5051693;28;20210;-54
2024/01/18 03:49:58;;;;;;;13.00;9.10;;;;;;;4.15;100.00;63359.72;5051569;28;20648;-53
2024/01/18 03:52:23;;;;;;;14.90;9.63;;;;;;;3.93;100.00;63335.25;5033710;28;20212;-53
2024/01/18 03:54:49;;;;;;;13.60;8.53;;;;;;;4.34;100.00;63379.84;5051734;28;20213;-54
2024/01/18 03:57:15;;;;;;;16.67;10.07;;;;;;;4.32;100.00;63375.19;5051629;28;20284;-54
2024/01/18 03:59:40;;;;;;;15.00;10.10;;;;;;;4.16;100.00;63360.81;5051809;28;20277;-53
2024/01/18 04:02:06;;;;;;;14.27;9.33;;;;;;;4.15;100.00;63356.69;5033535;28;20278;-55
2024/01/18 04:04:32;;;;;;;14.13;9.57;;;;;;;4.18;100.00;63362.44;5051396;28;20185;-55
2024/01/18 04:06:58;;;;;;;16.20;9.77;;;;;;;4.23;100.00;63368.41;5051601;28;20210;-54
2024/01/18 04:09:23;;;;;;;14.67;9.13;;;;;;;4.09;100.00;63350.16;5033520;28;20303;-54
2024/01/18 04:11:49;;;;;;;14.27;9.33;;;;;;;4.21;100.00;63363.75;5051284;28;20320;-54
2024/01/18 04:14:15;;;;;;;13.80;9.23;;;;;;;4.35;100.00;63377.88;5051561;28;20217;-54
2024/01/18 04:16:41;;;;;;;17.07;10.70;;;;;;;3.96;100.00;63336.56;5033338;28;20285;-54
2024/01/18 04:19:06;;;;;;;15.13;9.57;;;;;;;4.36;100.00;63381.47;5033766;28;20236;-56
2024/01/18 04:21:32;;;;;;;12.97;8.90;;;;;;;4.15;100.00;63359.72;5051394;28;20225;-53
2024/01/18 04:23:57;;;;;;;16.33;10.60;;;;;;;3.99;100.00;63339.28;5051260;28;20257;-54
2024/01/18 04:26:24;;;;;;;18.03;9.43;;;;;;;4.26;100.00;63369.19;5051141;28;20185;-54
2024/01/18 04:28:51;;;;;;;15.73;9.87;;;;;;;4.37;100.00;63377.56;5033472;28;20201;-54
2024/01/18 04:31:17;;;;;;;15.87;10.30;;;;;;;4.28;100.00;63371.34;5032545;28;20193;-54
2024/01/18 04:33:43;;;;;;;14.73;9.23;;;;;;;3.98;100.00;63341.22;5033118;28;20210;-54
2024/01/18 04:36:08;;;;;;;16.17;10.23;;;;;;;4.32;100.00;63377.66;5051270;28;20311;-55
2024/01/18 04:38:34;;;;;;;18.47;10.23;;;;;;;4.03;100.00;63346.13;5050928;28;20237;-55
2024/01/18 04:41:00;;;;;;;15.73;9.37;;;;;;;4.11;100.00;63354.81;5051108;28;20618;-55
2024/01/18 04:43:25;;;;;;;18.37;10.87;;;;;;;4.28;100.00;63373.84;5051139;28;20223;-55
2024/01/18 04:45:51;;;;;;;11.10;7.57;;;;;;;4.21;100.00;63363.19;5051432;28;20543;-55
2024/01/18 04:48:17;;;;;;;18.33;10.03;;;;;;;4.26;100.00;63371.16;5050909;28;20290;-57
2024/01/18 04:50:42;;;;;;;17.17;9.90;;;;;;;4.04;100.00;63344.72;5032853;28;20583;-55
2024/01/18 04:53:08;;;;;;;14.30;9.93;;;;;;;4.28;100.00;63372.78;5050772;28;20204;-54
2024/01/18 04:55:33;;;;;;;13.97;9.67;;;;;;;4.19;100.00;63364.06;5050861;28;20189;-56
2024/01/18 04:57:59;;;;;;;17.67;10.13;;;;;;;4.34;100.00;63379.28;5050816;28;20203;-54
2024/01/18 05:00:25;;;;;;;16.17;9.70;;;;;;;4.35;100.00;63378.44;5051102;28;20267;-55
2024/01/18 05:02:50;;;;;;;16.77;9.70;;;;;;;4.37;100.00;63378.09;5050593;28;20206;-57
2024/01/18 05:05:16;;;;;;;14.37;9.53;;;;;;;4.15;100.00;63356.69;5051300;28;20210;-54
2024/01/18 05:07:41;;;;;;;15.33;9.83;;;;;;;4.26;100.00;63368.66;5050665;28;20207;-53
2024/01/18 05:10:11;;;;;;;15.17;9.63;;;;;;;4.37;100.00;63382.53;5050664;28;20564;-54
2024/01/18 05:12:37;;;;;;;15.03;10.23;;;;;;;4.16;100.00;63363.28;5050520;28;20709;-55
2024/01/18 05:15:04;;;;;;;13.90;9.40;;;;;;;4.07;100.00;63350.47;5050627;28;20253;-56
2024/01/18 05:17:37;;;;;;;17.47;11.47;;;;;;;4.21;100.00;63365.69;5050471;28;20632;-53
2024/01/18 05:20:03;;;;;;;14.80;9.60;;;;;;;4.15;100.00;63359.72;5050414;28;20290;-55
2024/01/18 05:22:30;;;;;;;17.77;9.80;;;;;;;4.21;100.00;63365.69;5050328;28;20205;-55
2024/01/18 05:24:56;;;;;;;16.43;10.63;;;;;;;4.02;100.00;63345.56;5050863;28;20223;-56
2024/01/18 05:27:23;;;;;;;17.40;9.90;;;;;;;4.02;100.00;63345.56;5050444;28;20300;-55
2024/01/18 05:29:48;;;;;;;15.83;10.00;;;;;;;4.13;100.00;63359.50;5032700;28;20193;-55
2024/01/18 05:32:14;;;;;;;15.10;9.63;;;;;;;4.33;100.00;63375.69;5050124;28;20275;-55
2024/01/18 05:34:40;;;;;;;13.93;9.70;;;;;;;4.07;100.00;63351.03;5050308;28;20275;-55
2024/01/18 05:37:06;;;;;;;15.90;10.83;;;;;;;4.19;100.00;63359.09;5050204;28;20219;-55
2024/01/18 05:39:31;;;;;;;16.13;9.77;;;;;;;4.20;100.00;63364.63;5050152;28;20236;-54
2024/01/18 05:41:57;;;;;;;15.57;9.63;;;;;;;4.48;100.00;63395.06;5050819;28;20224;-55
2024/01/18 05:44:23;;;;;;;15.80;9.23;;;;;;;4.61;100.00;63406.16;5053642;28;20651;-55
2024/01/18 05:46:48;;;;;;;16.00;9.67;;;;;;;4.36;100.00;63379.53;5035794;28;20213;-55
2024/01/18 05:49:14;;;;;;;17.50;9.70;;;;;;;4.67;100.00;63415.19;5053752;28;20186;-55
2024/01/18 05:51:40;;;;;;;14.40;9.07;;;;;;;4.37;100.00;63382.53;5053347;28;20196;-55
2024/01/18 05:54:06;;;;;;;15.40;9.83;;;;;;;4.68;100.00;63416.28;5053380;28;20223;-56
2024/01/18 05:56:32;;;;;;;13.93;9.37;;;;;;;4.67;100.00;63413.22;5035539;28;20565;-55
2024/01/18 05:58:57;;;;;;;14.00;9.87;;;;;;;4.49;100.00;63395.59;5053357;28;20199;-55
2024/01/18 06:01:23;;;;;;;14.97;9.77;;;;;;;4.77;100.00;63426.59;5053642;28;20177;-60
2024/01/18 06:03:48;;;;;;;15.87;9.43;;;;;;;4.70;100.00;63419.00;5053511;28;20220;-54
2024/01/18 06:06:15;;;;;;;15.00;9.50;;;;;;;4.88;100.00;63438.59;5053523;28;20188;-53
2024/01/18 06:08:40;;;;;;;19.33;10.37;;;;;;;4.98;100.00;63449.47;5018747;28;20239;-57
2024/01/18 06:11:07;;;;;;;14.80;9.33;;;;;;;4.68;100.00;63418.78;5035565;28;20257;-54
2024/01/18 06:13:32;;;;;;;13.10;8.80;;;;;;;4.86;100.00;63435.84;5052997;28;20219;-54
2024/01/18 06:15:58;;;;;;;17.00;10.43;;;;;;;4.95;100.00;63443.16;5051941;28;20193;-55
2024/01/18 06:18:25;;;;;;;13.83;9.23;;;;;;;5.15;100.00;63467.44;5053081;28;20213;-54
2024/01/18 06:20:50;;;;;;;14.23;9.40;;;;;;;5.38;100.00;63489.97;5053274;28;20192;-55
2024/01/18 06:23:16;;;;;;;15.30;8.90;;;;;;;5.16;100.00;63466.00;5052954;28;20266;-53
2024/01/18 06:25:41;;;;;;;14.97;9.37;;;;;;;5.16;100.00;63468.50;5053226;28;20199;-55
2024/01/18 06:28:07;;;;;;;15.13;8.63;;;;;;;5.32;100.00;63482.88;5052854;28;20637;-54
2024/01/18 06:30:32;;;;;;;13.13;9.17;;;;;;;4.95;100.00;63446.19;5053283;28;20559;-55
2024/01/18 06:32:58;;;;;;;20.90;8.87;;;;;;;5.01;100.00;63450.22;5053009;28;20203;-54
2024/01/18 06:35:23;;;;;;;16.13;9.07;;;;;;;4.95;100.00;63448.13;5053183;28;20627;-55
2024/01/18 06:37:49;;;;;;;17.37;9.00;;;;;;;5.05;100.00;63454.56;5052248;28;20223;-56
2024/01/18 06:40:16;;;;;;;14.53;8.20;;;;;;;5.41;100.00;63495.19;5052744;28;20288;-55
2024/01/18 06:42:42;;;;;;;15.73;9.00;;;;;;;5.24;100.00;63477.22;5052732;28;20224;-55
2024/01/18 06:45:08;;;;;;;13.83;9.57;;;;;;;5.32;100.00;63485.38;5051283;28;20679;-55
2024/01/18 06:47:35;;;;;;;15.37;8.37;;;;;;;5.37;100.00;63488.88;5052842;28;20207;-55
2024/01/18 06:50:00;;;;;;;15.10;8.13;;;;;;;5.46;100.00;63500.63;5034812;28;20200;-56
2024/01/18 06:52:26;;;;;;;15.70;8.13;;;;;;;5.56;100.00;63509.00;5052239;28;20265;-58
2024/01/18 06:54:52;;;;;;;9.53;6.73;;;;;;;5.65;100.00;63521.88;5052487;28;20220;-55
2024/01/18 06:57:18;;;;;;;13.10;6.87;;;;;;;5.77;100.00;63534.38;5034750;28;20206;-53
2024/01/18 06:59:46;;;;;;;11.03;7.33;;;;;;;5.78;100.00;63532.97;5052902;28;20207;-54
2024/01/18 07:02:12;;;;;;;10.83;7.30;;;;;;;5.74;100.00;63531.66;5052599;28;20240;-55
2024/01/18 07:04:38;;;;;;;10.10;6.70;;;;;;;5.99;100.00;63557.81;5052404;28;20185;-57
2024/01/18 07:07:04;;;;;;;9.40;6.33;;;;;;;6.03;100.00;63562.72;5052522;28;20726;-55
2024/01/18 07:09:32;;;;;;;12.33;7.40;;;;;;;6.05;100.00;63564.91;5052632;28;20178;-54
2024/01/18 07:11:58;;;;;;;9.57;6.50;;;;;;;6.19;100.00;63580.16;5052152;28;20212;-55
2024/01/18 07:14:23;;;;;;;10.73;6.23;;;;;;;6.20;100.00;63581.22;5052280;28;20216;-54
2024/01/18 07:16:50;;;;;;;11.83;7.30;;;;;;;5.83;100.00;63541.50;5052219;28;20213;-54
2024/01/18 07:19:16;;;;;;;9.63;6.17;;;;;;;6.12;100.00;63570.03;5052437;28;20598;-58
2024/01/18 07:21:43;;;;;;;9.33;5.90;;;;;;;6.24;100.00;63585.06;5052145;28;20209;-55
2024/01/18 07:24:09;;;;;;;11.50;7.10;;;;;;;6.38;100.00;63598.34;5052275;28;20193;-54
2024/01/18 07:26:34;;;;;;;9.23;6.43;;;;;;;6.43;100.00;63603.81;5052076;28;20550;-56
2024/01/18 07:29:00;;;;;;;12.40;8.50;;;;;;;6.35;100.00;63600.09;5051755;28;20220;-55
2024/01/18 07:31:26;;;;;;;12.43;7.53;;;;;;;6.48;100.00;63611.78;5051841;28;20398;-55
2024/01/18 07:33:51;;;;;;;13.73;9.10;;;;;;;6.29;100.00;63588.56;5051772;28;20305;-57
2024/01/18 07:36:17;;;;;;;14.00;8.03;;;;;;;6.34;100.00;63595.97;5052607;28;20196;-58
2024/01/18 07:38:43;;;;;;;14.80;9.60;;;;;;;6.20;100.00;63575.69;5052195;28;20205;-57
2024/01/18 07:41:10;;;;;;;14.63;9.10;;;;;;;6.19;100.00;63577.09;5052142;28;20822;-54
2024/01/18 07:43:35;;;;;;;14.03;8.87;;;;;;;6.10;100.00;63569.81;5051798;28;20209;-56
2024/01/18 07:46:01;;;;;;;20.17;13.03;;;;;;;5.77;100.00;63536.88;5034077;28;20200;-56
2024/01/18 07:48:26;;;;;;;19.73;11.47;;;;;;;5.59;100.00;63512.28;5051859;28;20698;-57
2024/01/18 07:50:52;;;;;;;17.23;10.47;;;;;;;5.75;100.00;63532.19;5034108;28;20204;-57
2024/01/18 07:53:18;;;;;;;18.30;10.97;;;;;;;5.81;100.00;63536.78;5051780;28;20217;-62
2024/01/18 07:55:44;;;;;;;19.43;12.17;;;;;;;5.49;100.00;63503.88;5051865;28;20216;-54
2024/01/18 07:58:10;;;;;;;18.07;10.57;;;;;;;5.77;100.00;63534.38;5051840;28;20208;-55
2024/01/18 08:00:36;;;;;;;17.80;10.27;;;;;;;5.93;100.00;63552.38;5034191;28;20251;-60
2024/01/18 08:03:01;;;;;;;16.47;10.00;;;;;;;5.96;100.00;63552.06;5033870;28;20694;-56
2024/01/18 08:05:28;;;;;;;22.50;10.80;;;;;;;5.66;100.00;63522.94;5051127;28;20193;-55
2024/01/18 08:07:53;;;;;;;17.37;10.50;;;;;;;7.04;100.00;63671.72;5051548;28;20211;-54
2024/01/18 08:10:19;;;;;;;17.77;10.73;;;;;;;7.00;100.00;63667.91;5051435;28;20186;-57
2024/01/18 08:12:46;;;;;;;18.70;10.60;;;;;;;6.53;100.00;63614.72;5051794;28;20212;-56
2024/01/18 08:15:15;;;;;;;17.97;10.83;;;;;;;6.37;100.00;63599.78;5051684;28;20217;-55
2024/01/18 08:17:42;;;;;;;16.43;10.40;;;;;;;6.63;100.00;63627.56;5051343;28;20201;-55
2024/01/18 08:20:12;;;;;;;16.07;10.60;;;;;;;6.70;100.00;63632.69;5051430;28;20228;-54
2024/01/18 08:22:42;;;;;;;16.93;10.30;;;;;;;6.26;100.00;63587.78;5051381;28;20209;-56
2024/01/18 08:25:12;;;;;;;20.77;13.10;;;;;;;6.00;100.00;63556.41;5051581;28;20243;-57
2024/01/18 08:27:42;;;;;;;21.90;12.43;;;;;;;6.12;100.00;63572.00;5033390;28;20213;-55
2024/01/18 08:30:08;;;;;;;18.07;11.63;;;;;;;6.01;100.00;63557.50;5051547;28;20181;-55
2024/01/18 08:32:34;;;;;;;17.83;12.40;;;;;;;6.18;100.00;63579.06;5033348;28;20213;-57
2024/01/18 08:35:08;;;;;;;22.97;12.87;;;;;;;5.91;100.00;63547.16;5051505;28;20278;-58
2024/01/18 08:37:35;;;;;;;19.57;11.63;;;;;;;6.21;100.00;63581.78;5033407;28;20260;-55
2024/01/18 08:40:01;;;;;;;16.13;11.13;;;;;;;6.24;100.00;63583.09;5033466;28;20197;-56
2024/01/18 08:42:26;;;;;;;18.97;12.77;;;;;;;6.15;100.00;63573.28;5033347;28;20204;-56
2024/01/18 08:44:52;;;;;;;24.30;14.13;;;;;;;6.16;100.00;63576.88;5051339;28;20197;-59
2024/01/18 08:47:18;;;;;;;19.53;11.87;;;;;;;6.05;100.00;63561.84;5050974;28;20287;-57
2024/01/18 08:49:43;;;;;;;20.70;12.73;;;;;;;6.00;100.00;63556.41;5051346;28;20193;-58
2024/01/18 08:52:09;;;;;;;21.53;12.97;;;;;;;6.39;100.00;63599.44;5050798;28;20209;-57
2024/01/18 08:54:36;;;;;;;21.50;12.67;;;;;;;6.39;100.00;63601.41;5049604;28;20640;-56
2024/01/18 08:57:02;;;;;;;19.17;12.53;;;;;;;6.27;100.00;63586.38;5033166;28;20634;-55
2024/01/18 08:59:27;;;;;;;25.30;13.63;;;;;;;6.51;100.00;63611.97;5050868;28;20330;-55
2024/01/18 09:01:54;;;;;;;24.23;14.63;;;;;;;6.41;100.00;63601.63;5050986;28;20209;-55
2024/01/18 09:04:20;;;;;;;29.33;16.90;;;;;;;6.42;100.00;63602.72;5050736;28;20185;-56
2024/01/18 09:06:46;;;;;;;27.93;16.77;;;;;;;6.56;100.00;63618.00;5032773;28;20321;-55
2024/01/18 09:09:13;;;;;;;27.10;15.47;;;;;;;6.71;100.00;63636.84;5050661;28;20220;-55
2024/01/18 09:11:39;;;;;;;23.30;14.17;;;;;;;6.52;100.00;63615.59;5033108;28;20569;-56
2024/01/18 09:14:05;;;;;;;29.40;15.90;;;;;;;6.52;100.00;63615.59;5050696;28;20209;-55
2024/01/18 09:16:31;;;;;;;22.53;15.27;;;;;;;6.68;100.00;63628.56;5052007;28;20185;-55
2024/01/18 09:18:57;;;;;;;17.73;12.23;;;;;;;6.74;100.00;63637.59;5054296;28;20553;-54
2024/01/18 09:21:23;;;;;;;21.87;12.93;;;;;;;6.74;100.00;63637.06;5054105;28;20185;-54
2024/01/18 09:23:48;;;;;;;23.90;13.30;;;;;;;6.88;100.00;63654.28;5053894;28;20252;-55
2024/01/18 09:26:14;;;;;;;23.60;12.33;;;;;;;7.00;100.00;63662.91;5036136;28;20223;-55
2024/01/18 09:28:40;;;;;;;20.27;12.53;;;;;;;6.66;100.00;63628.34;5053695;28;20575;-55
2024/01/18 09:31:06;;;;;;;21.77;14.27;;;;;;;7.07;100.00;63670.00;5053831;28;20212;-54
2024/01/18 09:33:32;;;;;;;24.13;12.87;;;;;;;7.26;100.00;63695.72;5076311;23;20279;-55
2024/01/18 09:35:57;;;;;;;20.53;13.00;;;;;;;7.17;100.00;63680.91;5073899;28;20275;-54
2024/01/18 09:38:24;;;;;;;22.80;13.57;;;;;;;7.12;100.00;63681.00;5074114;28;20216;-54
2024/01/18 09:40:51;;;;;;;17.60;12.73;;;;;;;7.41;100.00;63707.09;5073670;28;20200;-61
2024/01/18 09:43:17;;;;;;;19.10;11.63;;;;;;;7.55;100.00;63727.38;5072421;28;20219;-55
2024/01/18 09:45:48;;;;;;;20.27;11.00;;;;;;;7.90;100.00;63763.06;5056582;22;20690;-56
2024/01/18 09:48:14;;;;;;;38.67;12.93;;;;;;;7.80;100.00;63752.13;5032370;28;20218;-56
2024/01/18 09:50:46;;;;;;;21.77;11.50;;;;;;;7.82;100.00;63753.78;5033594;28;20221;-56
2024/01/18 09:53:13;;;;;;;22.37;13.30;;;;;;;8.00;100.00;63773.97;5033461;28;20248;-55
2024/01/18 09:55:39;;;;;;;19.83;12.83;;;;;;;8.14;100.00;63791.75;5049258;28;20194;-57
2024/01/18 09:58:12;;;;;;;19.50;12.73;;;;;;;8.28;100.00;63804.03;5033816;28;20590;-56
2024/01/18 10:00:43;;;;;;;18.77;12.40;;;;;;;8.93;100.00;63871.94;5033861;28;20190;-56
2024/01/18 10:03:09;;;;;;;14.90;10.87;;;;;;;9.14;100.00;63897.41;5032373;28;20303;-55
2024/01/18 10:05:34;;;;;;;15.97;9.90;;;;;;;9.60;100.00;63947.16;5033788;28;20668;-55
2024/01/18 10:08:00;;;;;;;17.87;10.07;;;;;;;10.12;100.00;64002.09;5033540;28;20699;-57
2024/01/18 10:10:28;;;;;;;14.43;9.67;;;;;;;10.32;100.00;64023.44;5033437;28;20193;-57
2024/01/18 10:12:53;;;;;;;21.17;10.53;;;;;;;9.84;100.00;63971.44;5033498;28;20297;-57
2024/01/18 10:15:37;;;;;;;15.70;10.00;;;;;;;9.91;100.00;63981.63;5032559;28;20288;-56
2024/01/18 10:18:06;;;;;;;17.80;9.50;;;;;;;9.69;100.00;63960.06;5033211;28;20217;-57
2024/01/18 10:20:32;;;;;;;15.17;9.10;;;;;;;9.89;100.00;63981.94;5033647;28;20202;-56
2024/01/18 10:23:01;;;;;;;14.97;9.17;;;;;;;10.14;100.00;64004.28;5031880;28;20297;-56
2024/01/18 10:25:27;;;;;;;13.40;8.83;;;;;;;10.22;100.00;64016.97;5033314;28;20194;-55
2024/01/18 10:27:53;;;;;;;12.67;8.03;;;;;;;10.14;100.00;64004.28;5031556;28;20723;-56
2024/01/18 10:30:19;;;;;;;13.43;9.00;;;;;;;9.88;100.00;63977.78;5033352;28;20524;-57
2024/01/18 10:32:45;;;;;;;16.10;8.90;;;;;;;9.91;100.00;63979.09;5031844;28;20214;-57
2024/01/18 10:35:20;;;;;;;15.47;10.20;;;;;;;10.18;100.00;64010.63;5033052;28;20206;-56
2024/01/18 10:37:48;;;;;;;12.87;9.10;;;;;;;10.84;100.00;64082.31;5032955;28;20267;-54
2024/01/18 10:40:19;;;;;;;14.27;9.20;;;;;;;10.69;100.00;64066.44;5032934;28;20624;-55
2024/01/18 10:42:45;;;;;;;14.83;10.77;;;;;;;10.58;100.00;64053.84;5031026;28;20226;-55
2024/01/18 10:45:12;;;;;;;18.37;10.00;;;;;;;10.97;100.00;64099.63;5031409;28;20194;-55
2024/01/18 10:47:37;;;;;;;17.13;11.37;;;;;;;11.11;100.00;64108.81;5030004;28;20213;-55
2024/01/18 10:50:04;;;;;;;18.93;10.70;;;;;;;11.19;100.00;64115.06;5033102;28;20662;-54
2024/01/18 10:52:31;;;;;;;17.53;10.07;;;;;;;11.37;100.00;64139.81;5032345;28;20233;-54
2024/01/18 10:54:58;;;;;;;13.40;9.27;;;;;;;11.13;100.00;64111.00;5030374;28;20218;-55
2024/01/18 10:57:24;;;;;;;14.10;9.43;;;;;;;11.60;100.00;64163.03;5030326;28;20692;-55
2024/01/18 10:59:52;;;;;;;17.63;9.20;;;;;;;11.93;100.00;64200.63;5030889;28;20206;-57
2024/01/18 11:02:19;;;;;;;15.47;10.30;;;;;;;12.32;100.00;64238.34;5032382;28;20210;-55
2024/01/18 11:04:48;;;;;;;12.97;9.40;;;;;;;12.98;99.44;64315.25;5033057;28;20604;-54
2024/01/18 11:07:15;;;;;;;15.17;10.13;;;;;;;12.34;100.00;64245.59;5031705;28;20314;-55
2024/01/18 11:09:41;;;;;;;14.03;9.00;;;;;;;12.59;100.00;64270.47;5032932;28;20197;-55
2024/01/18 11:12:07;;;;;;;16.37;10.27;;;;;;;13.35;98.66;64353.34;5032435;28;20210;-58
2024/01/18 11:14:34;;;;;;;13.27;8.87;;;;;;;13.84;95.82;64409.09;5032347;28;20214;-59
2024/01/18 11:17:12;;;;;;;18.53;7.63;;;;;;;14.29;89.61;64456.59;5032007;28;20226;-55